createdAt,value
2018-07-04T00:00:58.560Z,21.76
2018-07-04T00:03:38.377Z,21.78
2018-07-04T00:06:18.244Z,21.75
2018-07-04T00:08:58.228Z,21.73
2018-07-04T00:11:38.064Z,21.73
2018-07-04T00:14:18.092Z,21.74
2018-07-04T00:16:57.940Z,21.74
2018-07-04T00:19:37.913Z,21.72
2018-07-04T00:22:17.872Z,21.73
2018-07-04T00:24:57.908Z,21.71
2018-07-04T00:27:37.922Z,21.61
2018-07-04T00:30:18.034Z,21.59
2018-07-04T00:32:58.064Z,21.33
2018-07-04T00:35:38.001Z,21.48
2018-07-04T00:38:17.947Z,21.41
2018-07-04T00:40:57.932Z,21.37
2018-07-04T00:43:37.973Z,21.33
2018-07-04T00:46:17.869Z,21.32
2018-07-04T00:48:57.800Z,21.35
2018-07-04T00:51:37.721Z,21.36
2018-07-04T00:54:17.850Z,21.36
2018-07-04T00:56:57.786Z,21.34
2018-07-04T00:59:37.657Z,21.37
2018-07-04T01:02:17.652Z,21.37
2018-07-04T01:04:57.626Z,21.36
2018-07-04T01:07:37.521Z,21.34
2018-07-04T01:10:17.346Z,21.35
2018-07-04T01:12:57.312Z,21.36
2018-07-04T01:15:37.243Z,21.38
2018-07-04T01:18:17.077Z,21.38
2018-07-04T01:21:02.233Z,21.39
2018-07-04T01:23:42.297Z,21.39
2018-07-04T01:26:22.213Z,21.41
2018-07-04T01:29:02.006Z,21.43
2018-07-04T01:31:41.977Z,21.46
2018-07-04T01:34:21.997Z,21.50
2018-07-04T01:37:01.992Z,21.51
2018-07-04T01:39:41.881Z,21.49
2018-07-04T01:42:21.820Z,21.47
2018-07-04T01:45:01.678Z,21.46
2018-07-04T01:47:41.953Z,21.46
2018-07-04T01:50:21.838Z,21.47
2018-07-04T01:53:01.704Z,21.48
2018-07-04T01:55:41.757Z,21.50
2018-07-04T01:58:21.665Z,21.46
2018-07-04T02:01:01.541Z,21.43
2018-07-04T02:03:41.580Z,21.36
2018-07-04T02:06:21.421Z,21.30
2018-07-04T02:09:01.358Z,21.20
2018-07-04T02:11:41.260Z,21.10
2018-07-04T02:14:21.154Z,21.03
2018-07-04T02:17:00.973Z,21.00
2018-07-04T02:19:40.950Z,20.99
2018-07-04T02:22:20.804Z,20.99
2018-07-04T02:25:00.735Z,20.99
2018-07-04T02:27:40.585Z,21.02
2018-07-04T02:30:20.560Z,21.03
2018-07-04T02:33:00.546Z,21.05
2018-07-04T02:35:40.370Z,21.08
2018-07-04T02:38:20.400Z,21.13
2018-07-04T02:41:00.380Z,21.16
2018-07-04T02:43:40.264Z,21.19
2018-07-04T02:46:25.364Z,21.19
2018-07-04T02:49:05.296Z,21.17
2018-07-04T02:51:45.257Z,21.21
2018-07-04T02:54:25.220Z,21.22
2018-07-04T02:57:05.132Z,21.22
2018-07-04T02:59:44.991Z,21.22
2018-07-04T03:02:24.732Z,21.23
2018-07-04T03:05:04.678Z,21.22
2018-07-04T03:07:44.540Z,21.23
2018-07-04T03:10:24.457Z,21.26
2018-07-04T03:13:04.317Z,21.33
2018-07-04T03:15:44.236Z,21.36
2018-07-04T03:18:24.117Z,21.41
2018-07-04T03:21:03.920Z,21.51
2018-07-04T03:23:43.800Z,21.62
2018-07-04T03:26:23.769Z,21.66
2018-07-04T03:29:03.576Z,21.68
2018-07-04T03:31:43.467Z,21.80
2018-07-04T03:34:23.420Z,21.94
2018-07-04T03:37:03.364Z,22.01
2018-07-04T03:39:43.300Z,22.04
2018-07-04T03:42:23.384Z,22.12
2018-07-04T03:45:03.333Z,22.16
2018-07-04T03:47:43.436Z,22.23
2018-07-04T03:50:23.336Z,22.33
2018-07-04T03:53:03.341Z,22.44
2018-07-04T03:55:43.187Z,22.88
2018-07-04T03:58:23.297Z,23.37
2018-07-04T04:01:03.099Z,23.74
2018-07-04T04:03:43.133Z,24.64
2018-07-04T04:06:23.169Z,25.15
2018-07-04T04:09:03.236Z,25.41
2018-07-04T04:11:43.156Z,26.47
2018-07-04T04:14:23.112Z,27.49
2018-07-04T04:17:03.005Z,28.35
2018-07-04T04:19:42.815Z,29.13
2018-07-04T04:22:22.524Z,29.60
2018-07-04T04:25:02.249Z,29.87
2018-07-04T04:27:42.141Z,30.43
2018-07-04T04:30:21.864Z,31.16
2018-07-04T04:33:01.821Z,31.65
2018-07-04T04:35:41.777Z,31.89
2018-07-04T04:38:21.807Z,31.63
2018-07-04T04:41:01.662Z,32.11
2018-07-04T04:43:41.548Z,32.00
2018-07-04T04:46:21.512Z,31.01
2018-07-04T04:49:01.469Z,30.09
2018-07-04T04:51:41.396Z,29.43
2018-07-04T04:54:21.313Z,28.97
2018-07-04T04:57:01.161Z,28.27
2018-07-04T04:59:41.056Z,28.05
2018-07-04T05:02:20.996Z,28.32
2018-07-04T05:05:01.010Z,28.23
2018-07-04T05:07:40.792Z,27.96
2018-07-04T05:10:20.792Z,27.50
2018-07-04T05:13:00.624Z,27.52
2018-07-04T05:15:40.600Z,27.84
2018-07-04T05:18:20.527Z,28.40
2018-07-04T05:21:00.420Z,28.63
2018-07-04T05:23:40.168Z,28.53
2018-07-04T05:26:20.875Z,29.13
2018-07-04T05:29:00.865Z,31.29
2018-07-04T05:31:40.785Z,32.86
2018-07-04T05:34:20.664Z,34.06
2018-07-04T05:37:00.512Z,35.47
2018-07-04T05:39:40.600Z,35.92
2018-07-04T05:42:20.435Z,35.86
2018-07-04T05:45:00.417Z,36.12
2018-07-04T05:47:40.291Z,36.67
2018-07-04T05:50:20.225Z,37.26
2018-07-04T05:53:00.089Z,37.36
2018-07-04T05:55:40.109Z,36.06
2018-07-04T05:58:19.921Z,34.73
2018-07-04T06:00:59.821Z,33.66
2018-07-04T06:03:39.568Z,32.89
2018-07-04T06:06:19.524Z,32.45
2018-07-04T06:08:59.614Z,32.39
2018-07-04T06:11:39.597Z,32.16
2018-07-04T06:14:19.432Z,31.58
2018-07-04T06:16:59.468Z,30.74
2018-07-04T06:19:39.272Z,29.95
2018-07-04T06:22:19.277Z,29.16
2018-07-04T06:24:59.124Z,28.77
2018-07-04T06:27:39.072Z,28.79
2018-07-04T06:30:18.888Z,28.78
2018-07-04T06:32:59.062Z,28.63
2018-07-04T06:35:39.040Z,28.43
2018-07-04T06:38:06.499Z,28.21
2018-07-04T06:40:33.984Z,27.94
2018-07-04T06:43:01.488Z,27.74
2018-07-04T06:45:28.980Z,27.87
2018-07-04T06:47:56.488Z,27.59
2018-07-04T06:50:24.023Z,27.24
2018-07-04T06:52:51.491Z,27.10
2018-07-04T06:55:18.954Z,27.22
2018-07-04T06:57:46.478Z,27.75
2018-07-04T07:00:13.996Z,28.20
2018-07-04T07:02:41.536Z,29.38
2018-07-04T07:05:21.371Z,30.74
2018-07-04T07:08:01.258Z,32.36
2018-07-04T07:10:41.393Z,33.35
2018-07-04T07:13:21.300Z,33.04
2018-07-04T07:16:01.193Z,32.59
2018-07-04T07:18:41.019Z,31.48
2018-07-04T07:21:21.004Z,30.92
2018-07-04T07:24:01.004Z,30.29
2018-07-04T07:26:40.851Z,30.22
2018-07-04T07:29:20.819Z,30.29
2018-07-04T07:32:00.753Z,30.18
2018-07-04T07:34:40.589Z,30.04
2018-07-04T07:37:20.468Z,30.23
2018-07-04T07:40:00.371Z,30.45
2018-07-04T07:42:40.325Z,30.50
2018-07-04T07:45:20.308Z,30.58
2018-07-04T07:48:00.223Z,31.06
2018-07-04T07:50:40.033Z,32.36
2018-07-04T07:53:20.009Z,33.10
2018-07-04T07:55:59.805Z,33.37
2018-07-04T07:58:39.757Z,32.96
2018-07-04T08:01:19.720Z,32.84
2018-07-04T08:03:59.733Z,32.12
2018-07-04T08:06:39.672Z,31.25
2018-07-04T08:09:19.605Z,30.13
2018-07-04T08:11:59.607Z,30.52
2018-07-04T08:14:39.650Z,30.24
2018-07-04T08:17:19.466Z,29.82
2018-07-04T08:19:59.471Z,29.59
2018-07-04T08:22:39.801Z,29.85
2018-07-04T08:25:19.676Z,29.84
2018-07-04T08:27:59.637Z,29.80
2018-07-04T08:30:39.441Z,29.69
2018-07-04T08:33:19.284Z,29.93
2018-07-04T08:35:59.192Z,30.27
2018-07-04T08:38:39.329Z,30.82
2018-07-04T08:41:19.360Z,31.28
2018-07-04T08:43:59.284Z,31.35
2018-07-04T08:46:39.200Z,31.51
2018-07-04T08:49:19.088Z,31.68
2018-07-04T08:51:58.977Z,31.94
2018-07-04T08:54:38.852Z,32.00
2018-07-04T08:57:18.885Z,31.98
2018-07-04T08:59:58.852Z,31.62
2018-07-04T09:02:38.728Z,31.49
2018-07-04T09:05:18.665Z,31.52
2018-07-04T09:07:58.496Z,31.89
2018-07-04T09:10:38.529Z,31.79
2018-07-04T09:13:18.544Z,31.69
2018-07-04T09:15:58.263Z,31.68
2018-07-04T09:18:38.296Z,31.49
2018-07-04T09:21:18.236Z,31.29
2018-07-04T09:23:58.227Z,31.48
2018-07-04T09:26:38.044Z,31.32
2018-07-04T09:29:17.999Z,31.64
2018-07-04T09:31:57.820Z,31.70
2018-07-04T09:34:37.768Z,31.94
2018-07-04T09:37:17.797Z,32.03
2018-07-04T09:39:57.680Z,32.69
2018-07-04T09:42:37.589Z,32.97
2018-07-04T09:45:17.492Z,33.06
2018-07-04T09:47:57.343Z,33.66
2018-07-04T09:50:37.377Z,34.18
2018-07-04T09:53:17.295Z,34.58
2018-07-04T09:55:57.190Z,34.80
2018-07-04T09:58:37.069Z,35.08
2018-07-04T10:01:23.485Z,35.37
2018-07-04T10:04:03.685Z,35.94
2018-07-04T10:06:44.300Z,35.98
2018-07-04T10:09:24.517Z,35.61
2018-07-04T10:12:04.523Z,35.95
2018-07-04T10:14:44.506Z,35.98
2018-07-04T10:17:24.247Z,36.51
2018-07-04T10:20:04.276Z,36.44
2018-07-04T10:22:44.310Z,36.59
2018-07-04T10:25:24.060Z,36.42
2018-07-04T10:28:04.053Z,36.36
2018-07-04T10:30:43.996Z,35.85
2018-07-04T10:33:23.859Z,36.04
2018-07-04T10:36:03.589Z,35.88
2018-07-04T10:38:43.516Z,35.95
2018-07-04T10:41:23.453Z,36.24
2018-07-04T10:44:03.293Z,36.10
2018-07-04T10:46:43.077Z,36.54
2018-07-04T10:49:23.145Z,36.92
2018-07-04T10:52:03.140Z,37.22
2018-07-04T10:54:43.032Z,37.26
2018-07-04T10:57:22.834Z,37.84
2018-07-04T11:00:02.793Z,37.92
2018-07-04T11:02:42.640Z,37.86
2018-07-04T11:05:22.849Z,38.32
2018-07-04T11:08:02.876Z,37.98
2018-07-04T11:10:42.524Z,38.68
2018-07-04T11:13:22.360Z,38.63
2018-07-04T11:16:02.197Z,38.86
2018-07-04T11:18:42.000Z,38.80
2018-07-04T11:21:21.841Z,38.57
2018-07-04T11:24:01.881Z,38.90
2018-07-04T11:26:41.876Z,39.28
2018-07-04T11:29:21.936Z,39.40
2018-07-04T11:32:01.510Z,39.59
2018-07-04T11:34:41.464Z,39.83
2018-07-04T11:37:21.212Z,40.16
2018-07-04T11:40:01.287Z,40.27
2018-07-04T11:42:41.152Z,40.90
2018-07-04T11:45:20.856Z,41.38
2018-07-04T11:47:48.369Z,41.39
2018-07-04T11:50:16.027Z,41.21
2018-07-04T11:52:43.497Z,40.50
2018-07-04T11:55:10.944Z,40.51
2018-07-04T11:57:38.428Z,40.61
2018-07-04T12:00:05.941Z,41.06
2018-07-04T12:02:33.431Z,40.97
2018-07-04T12:05:13.425Z,40.68
2018-07-04T12:07:40.916Z,40.61
2018-07-04T12:10:08.433Z,40.66
2018-07-04T12:12:36.005Z,40.33
2018-07-04T12:15:03.538Z,40.40
2018-07-04T12:17:30.989Z,40.31
2018-07-04T12:19:58.469Z,40.88
2018-07-04T12:24:53.623Z,41.21
2018-07-04T12:27:21.124Z,41.36
2018-07-04T12:29:48.709Z,41.16
2018-07-04T12:32:16.228Z,40.75
2018-07-04T12:34:43.787Z,41.43
2018-07-04T12:37:11.259Z,41.65
2018-07-04T12:39:38.712Z,42.07
2018-07-04T12:42:06.721Z,42.38
2018-07-04T12:44:34.181Z,42.46
2018-07-04T12:47:01.820Z,42.53
2018-07-04T12:49:29.792Z,42.78
2018-07-04T12:51:57.403Z,43.20
2018-07-04T12:54:30.102Z,43.26
2018-07-04T12:57:10.097Z,42.89
2018-07-04T12:59:49.919Z,42.46
2018-07-04T13:02:29.623Z,42.09
2018-07-04T13:05:09.587Z,41.88
2018-07-04T13:07:49.467Z,41.98
2018-07-04T13:10:29.503Z,41.76
2018-07-04T13:13:09.396Z,42.04
2018-07-04T13:15:49.220Z,42.47
2018-07-04T13:18:28.892Z,42.75
2018-07-04T13:21:09.236Z,42.81
2018-07-04T13:23:49.356Z,42.67
2018-07-04T13:26:29.104Z,42.30
2018-07-04T13:29:08.837Z,42.45
2018-07-04T13:31:48.692Z,42.93
2018-07-04T13:34:28.280Z,42.52
2018-07-04T13:37:08.060Z,42.56
2018-07-04T13:39:47.635Z,42.62
2018-07-04T13:42:27.829Z,42.87
2018-07-04T13:45:07.897Z,42.68
2018-07-04T13:47:47.769Z,42.69
2018-07-04T13:50:27.432Z,42.74
2018-07-04T13:53:07.317Z,42.96
2018-07-04T13:55:47.137Z,43.18
2018-07-04T13:58:27.144Z,42.30
2018-07-04T14:01:07.061Z,40.68
2018-07-04T14:03:47.125Z,39.14
2018-07-04T14:06:27.024Z,37.91
2018-07-04T14:09:06.913Z,36.93
2018-07-04T14:11:46.841Z,36.15
2018-07-04T14:14:27.960Z,35.53
2018-07-04T14:17:07.969Z,34.85
2018-07-04T14:19:49.277Z,34.20
2018-07-04T14:22:29.127Z,33.78
2018-07-04T14:25:08.860Z,33.34
2018-07-04T14:27:48.796Z,33.04
2018-07-04T14:30:28.820Z,32.89
2018-07-04T14:33:09.835Z,32.63
2018-07-04T14:35:49.616Z,32.42
2018-07-04T14:38:29.441Z,32.38
2018-07-04T14:41:09.358Z,32.27
2018-07-04T14:43:49.219Z,32.21
2018-07-04T14:46:29.232Z,32.20
2018-07-04T14:49:09.173Z,32.18
2018-07-04T14:51:49.320Z,32.10
2018-07-04T14:54:29.288Z,32.03
2018-07-04T14:57:09.168Z,31.96
2018-07-04T14:59:49.045Z,31.91
2018-07-04T15:02:29.206Z,31.95
2018-07-04T15:05:09.045Z,31.90
2018-07-04T15:07:49.008Z,31.94
2018-07-04T15:10:28.752Z,32.10
2018-07-04T15:13:08.750Z,32.15
2018-07-04T15:15:48.675Z,32.04
2018-07-04T15:18:28.495Z,32.07
2018-07-04T15:21:08.359Z,32.14
2018-07-04T15:23:48.257Z,32.14
2018-07-04T15:26:28.127Z,32.19
2018-07-04T15:29:08.016Z,32.27
2018-07-04T15:31:47.961Z,32.15
2018-07-04T15:34:27.772Z,32.11
2018-07-04T15:37:07.903Z,32.10
2018-07-04T15:39:48.022Z,32.09
2018-07-04T15:42:28.000Z,32.09
2018-07-04T15:45:07.916Z,32.06
2018-07-04T15:47:48.029Z,32.02
2018-07-04T15:50:27.870Z,31.98
2018-07-04T15:53:07.840Z,31.88
2018-07-04T15:55:47.776Z,31.87
2018-07-04T15:58:27.706Z,31.76
2018-07-04T16:01:07.618Z,31.60
2018-07-04T16:03:47.597Z,31.54
2018-07-04T16:06:27.530Z,31.42
2018-07-04T16:09:07.513Z,31.33
2018-07-04T16:11:47.452Z,31.30
2018-07-04T16:14:27.376Z,31.26
2018-07-04T16:17:07.299Z,31.19
2018-07-04T16:19:46.987Z,31.06
2018-07-04T16:22:26.712Z,30.94
2018-07-04T16:25:06.631Z,30.84
2018-07-04T16:27:46.455Z,30.77
2018-07-04T16:30:26.430Z,30.70
2018-07-04T16:33:06.380Z,30.64
2018-07-04T16:35:46.516Z,30.59
2018-07-04T16:38:26.517Z,30.54
2018-07-04T16:41:06.485Z,30.47
2018-07-04T16:43:46.416Z,30.31
2018-07-04T16:46:26.214Z,30.22
2018-07-04T16:49:06.093Z,29.94
2018-07-04T16:51:45.989Z,29.84
2018-07-04T16:54:25.965Z,29.73
2018-07-04T16:57:05.778Z,29.52
2018-07-04T16:59:45.644Z,29.38
2018-07-04T17:02:25.635Z,29.21
2018-07-04T17:05:05.461Z,29.09
2018-07-04T17:07:45.261Z,28.99
2018-07-04T17:10:25.128Z,28.89
2018-07-04T17:13:04.996Z,28.83
2018-07-04T17:15:44.957Z,28.77
2018-07-04T17:18:24.633Z,28.72
2018-07-04T17:21:04.554Z,28.65
2018-07-04T17:23:44.276Z,28.66
2018-07-04T17:26:24.146Z,28.65
2018-07-04T17:29:03.998Z,28.66
2018-07-04T17:31:44.484Z,28.64
2018-07-04T17:34:24.196Z,28.60
2018-07-04T17:37:04.244Z,28.54
2018-07-04T17:39:44.157Z,28.51
2018-07-04T17:42:24.169Z,28.46
2018-07-04T17:45:04.023Z,28.40
2018-07-04T17:47:43.922Z,28.24
2018-07-04T17:50:23.735Z,28.15
2018-07-04T17:53:03.648Z,28.02
2018-07-04T17:55:43.424Z,27.88
2018-07-04T17:58:23.351Z,27.74
2018-07-04T18:01:03.316Z,27.58
2018-07-04T18:03:43.189Z,27.44
2018-07-04T18:06:23.224Z,27.28
2018-07-04T18:09:03.384Z,27.15
2018-07-04T18:11:43.447Z,26.99
2018-07-04T18:14:23.341Z,26.87
2018-07-04T18:17:03.260Z,26.72
2018-07-04T18:19:43.365Z,26.56
2018-07-04T18:22:23.084Z,26.48
2018-07-04T18:25:02.821Z,26.37
2018-07-04T18:27:42.847Z,26.26
2018-07-04T18:30:22.603Z,26.17
2018-07-04T18:33:02.596Z,26.10
2018-07-04T18:35:42.632Z,25.97
2018-07-04T18:38:22.473Z,25.82
2018-07-04T18:41:02.272Z,25.74
2018-07-04T18:43:42.360Z,25.63
2018-07-04T18:46:22.244Z,25.47
2018-07-04T18:49:02.145Z,25.36
2018-07-04T18:51:42.284Z,25.27
2018-07-04T18:54:22.133Z,25.19
2018-07-04T18:57:02.145Z,25.08
2018-07-04T18:59:42.064Z,24.96
2018-07-04T19:02:21.898Z,24.91
2018-07-04T19:05:02.021Z,24.83
2018-07-04T19:07:42.068Z,24.73
2018-07-04T19:10:21.809Z,24.61
2018-07-04T19:13:01.827Z,24.55
2018-07-04T19:15:41.693Z,24.51
2018-07-04T19:18:21.632Z,24.43
2018-07-04T19:21:01.375Z,24.35
2018-07-04T19:23:41.336Z,24.30
2018-07-04T19:26:21.264Z,24.27
2018-07-04T19:29:01.216Z,24.20
2018-07-04T19:31:42.998Z,24.17
2018-07-04T19:34:23.190Z,24.13
2018-07-04T19:37:03.299Z,24.07
2018-07-04T19:39:43.417Z,24.02
2018-07-04T19:42:23.600Z,24.02
2018-07-04T19:45:03.144Z,23.96
2018-07-04T19:47:43.004Z,23.91
2018-07-04T19:50:22.996Z,23.84
2018-07-04T19:53:02.944Z,23.83
2018-07-04T19:55:43.730Z,23.78
2018-07-04T19:58:23.617Z,23.69
2018-07-04T20:01:03.503Z,23.68
2018-07-04T20:03:43.589Z,23.73
2018-07-04T20:06:23.430Z,23.84
2018-07-04T20:09:03.120Z,24.01
2018-07-04T20:11:43.092Z,24.12
2018-07-04T20:14:23.000Z,24.20
2018-07-04T20:17:02.900Z,24.25
2018-07-04T20:19:42.749Z,24.28
2018-07-04T20:22:22.678Z,24.29
2018-07-04T20:25:02.520Z,24.33
2018-07-04T20:27:42.636Z,24.35
2018-07-04T20:30:22.606Z,24.35
2018-07-04T20:33:02.304Z,24.38
2018-07-04T20:35:42.335Z,24.38
2018-07-04T20:38:22.059Z,24.35
2018-07-04T20:41:02.140Z,24.33
2018-07-04T20:43:42.043Z,24.31
2018-07-04T20:46:22.293Z,24.30
2018-07-04T20:49:02.309Z,24.29
2018-07-04T20:51:42.306Z,24.33
2018-07-04T20:54:22.209Z,24.38
2018-07-04T20:57:02.025Z,24.50
2018-07-04T20:59:42.021Z,24.55
2018-07-04T21:02:22.056Z,24.68
2018-07-04T21:05:01.852Z,24.82
2018-07-04T21:07:41.908Z,24.89
2018-07-04T21:10:21.692Z,25.03
2018-07-04T21:13:01.655Z,25.05
2018-07-04T21:15:41.760Z,25.10
2018-07-04T21:18:21.569Z,25.13
2018-07-04T21:21:01.558Z,25.10
2018-07-04T21:23:41.386Z,25.05
2018-07-04T21:26:21.228Z,24.96
2018-07-04T21:29:00.899Z,24.90
2018-07-04T21:31:40.864Z,24.80
2018-07-04T21:34:20.693Z,24.72
2018-07-04T21:37:00.662Z,24.63
2018-07-04T21:39:40.582Z,24.50
2018-07-04T21:42:20.934Z,24.38
2018-07-04T21:45:00.892Z,24.30
2018-07-04T21:47:40.693Z,24.21
2018-07-04T21:50:20.744Z,24.14
2018-07-04T21:53:00.612Z,24.11
2018-07-04T21:55:40.533Z,24.05
2018-07-04T21:58:20.624Z,24.02
2018-07-04T22:01:00.177Z,23.95
2018-07-04T22:03:40.111Z,23.89
2018-07-04T22:06:19.863Z,23.79
2018-07-04T22:08:59.710Z,23.66
2018-07-04T22:11:39.700Z,23.55
2018-07-04T22:14:19.729Z,23.46
2018-07-04T22:16:59.665Z,23.38
2018-07-04T22:19:39.588Z,23.33
2018-07-04T22:22:19.418Z,23.30
2018-07-04T22:24:59.374Z,23.25
2018-07-04T22:27:39.509Z,23.23
2018-07-04T22:30:19.290Z,23.20
2018-07-04T22:32:59.263Z,23.19
2018-07-04T22:35:39.364Z,23.23
2018-07-04T22:38:19.367Z,23.26
2018-07-04T22:40:59.193Z,23.27
2018-07-04T22:43:39.209Z,23.28
2018-07-04T22:46:19.041Z,23.29
2018-07-04T22:48:59.068Z,23.29
2018-07-04T22:51:38.952Z,23.32
2018-07-04T22:54:19.104Z,23.31
2018-07-04T22:56:59.060Z,23.30
2018-07-04T22:59:38.733Z,23.25
2018-07-04T23:02:18.692Z,23.28
2018-07-04T23:04:58.511Z,23.37
2018-07-04T23:07:38.588Z,23.49
2018-07-04T23:10:18.473Z,23.60
2018-07-04T23:12:58.416Z,23.70
2018-07-04T23:15:38.104Z,23.81
2018-07-04T23:18:18.160Z,23.87
2018-07-04T23:20:58.308Z,23.93
2018-07-04T23:23:38.296Z,24.01
2018-07-04T23:26:18.180Z,24.07
2018-07-04T23:28:58.000Z,24.11
2018-07-04T23:31:37.884Z,24.18
2018-07-04T23:34:17.952Z,24.20
2018-07-04T23:36:57.671Z,24.21
2018-07-04T23:39:37.612Z,24.22
2018-07-04T23:42:17.424Z,24.18
2018-07-04T23:44:57.417Z,24.09
2018-07-04T23:47:37.236Z,23.98
2018-07-04T23:50:17.225Z,23.89
2018-07-04T23:52:57.121Z,23.77
2018-07-04T23:55:36.995Z,23.67
2018-07-04T23:58:16.864Z,23.63
